Time;durP1;ratioP1;P1;durP2;ratioP2;P2;SDS_P1;SDS_P2;PMS_P1;PMS_P2;Temp;Humidity;BMP_temperature;BMP_pressure;BME280_temperature;BME280_humidity;BME280_pressure;Samples;Min_cycle;Max_cycle;Signal;HPM_P1;HPM_P2
2021/05/14 00:02:05;;;;;;;6.28;2.20;;;9.60;99.90;;;;;;5049255;28;20025;-75
2021/05/14 00:04:31;;;;;;;2.58;2.20;;;9.60;99.90;;;;;;5049265;28;20021;-75
2021/05/14 00:06:56;;;;;;;4.47;2.08;;;9.60;99.90;;;;;;5049281;28;20508;-75
2021/05/14 00:09:22;;;;;;;3.42;2.30;;;9.60;99.90;;;;;;5047741;28;20025;-75
2021/05/14 00:11:48;;;;;;;2.97;2.30;;;9.60;99.90;;;;;;5049172;28;20386;-74
2021/05/14 00:14:14;;;;;;;2.80;1.70;;;9.60;99.90;;;;;;5047846;28;20025;-74
2021/05/14 00:16:40;;;;;;;4.35;2.20;;;9.60;99.90;;;;;;5049133;28;20024;-75
2021/05/14 00:19:06;;;;;;;3.45;2.03;;;9.60;99.90;;;;;;5047699;28;20025;-74
2021/05/14 00:21:33;;;;;;;3.53;1.90;;;9.60;99.90;;;;;;5049112;28;20483;-75
2021/05/14 00:23:59;;;;;;;3.35;2.20;;;9.50;99.90;;;;;;5049094;28;20542;-75
2021/05/14 00:26:24;;;;;;;4.07;2.25;;;9.60;99.90;;;;;;5047811;28;20033;-75
2021/05/14 00:28:50;;;;;;;4.10;2.60;;;9.50;99.90;;;;;;5047709;28;20025;-74
2021/05/14 00:31:16;;;;;;;3.95;2.50;;;9.50;99.90;;;;;;5048940;28;20386;-74
2021/05/14 00:33:42;;;;;;;6.38;2.53;;;9.50;99.90;;;;;;5049053;28;20025;-74
2021/05/14 00:36:08;;;;;;;3.15;2.42;;;9.50;99.90;;;;;;5049007;28;20470;-75
2021/05/14 00:38:35;;;;;;;3.97;2.30;;;9.50;99.90;;;;;;5048931;28;20036;-75
2021/05/14 00:41:00;;;;;;;4.10;2.60;;;9.50;99.90;;;;;;5048978;28;20108;-75
2021/05/14 00:43:26;;;;;;;4.30;2.35;;;9.50;99.90;;;;;;5047961;28;20064;-75
2021/05/14 00:45:51;;;;;;;4.47;2.45;;;9.50;99.90;;;;;;5048976;28;20099;-75
2021/05/14 00:48:17;;;;;;;4.18;2.13;;;9.50;99.90;;;;;;5047749;28;20024;-74
2021/05/14 00:50:43;;;;;;;3.78;2.85;;;9.50;99.90;;;;;;5048659;28;20029;-74
2021/05/14 00:53:08;;;;;;;3.58;2.22;;;9.50;99.90;;;;;;5049072;28;20032;-74
2021/05/14 00:55:34;;;;;;;4.05;2.10;;;9.50;99.90;;;;;;5051048;28;20025;-75
2021/05/14 00:57:59;;;;;;;5.70;2.35;;;9.50;99.90;;;;;;5051526;28;20068;-75
2021/05/14 01:00:25;;;;;;;4.35;2.25;;;9.50;99.90;;;;;;5051255;28;20033;-75
2021/05/14 01:02:52;;;;;;;4.68;2.45;;;9.40;99.90;;;;;;5051341;28;20056;-75
2021/05/14 01:05:19;;;;;;;5.18;2.60;;;9.40;99.90;;;;;;5051174;28;20029;-75
2021/05/14 01:07:45;;;;;;;5.47;2.67;;;9.40;99.90;;;;;;5052373;28;20075;-74
2021/05/14 01:10:11;;;;;;;3.75;2.15;;;9.40;99.90;;;;;;5051029;28;20401;-75
2021/05/14 01:12:36;;;;;;;4.45;2.67;;;9.40;99.90;;;;;;5051118;28;20460;-75
2021/05/14 01:15:03;;;;;;;4.45;2.60;;;9.40;99.90;;;;;;5052276;28;20102;-75
2021/05/14 01:17:30;;;;;;;4.55;2.58;;;9.40;99.90;;;;;;5052139;28;20029;-75
2021/05/14 01:19:56;;;;;;;3.63;2.30;;;9.40;99.90;;;;;;5052518;28;20024;-75
2021/05/14 01:22:25;;;;;;;4.22;2.38;;;9.40;99.90;;;;;;5052174;28;20071;-74
2021/05/14 01:24:50;;;;;;;3.90;2.40;;;9.40;99.90;;;;;;5052191;28;20029;-74
2021/05/14 01:27:16;;;;;;;4.03;2.28;;;9.30;99.90;;;;;;5052048;28;20028;-74
2021/05/14 01:29:43;;;;;;;3.08;2.20;;;9.30;99.90;;;;;;5050682;28;20033;-75
2021/05/14 01:32:09;;;;;;;4.18;2.30;;;9.30;99.90;;;;;;5051983;28;20501;-75
2021/05/14 01:34:34;;;;;;;3.33;2.50;;;9.30;99.90;;;;;;5051917;28;20029;-75
2021/05/14 01:37:00;;;;;;;4.63;2.85;;;9.30;99.90;;;;;;5051964;28;20021;-75
2021/05/14 01:39:26;;;;;;;5.40;2.63;;;9.20;99.90;;;;;;5051753;28;20104;-75
2021/05/14 01:41:52;;;;;;;4.22;2.40;;;9.20;99.90;;;;;;5051894;28;20032;-76
2021/05/14 01:44:19;;;;;;;4.75;2.67;;;9.20;99.90;;;;;;5051774;28;20032;-76
2021/05/14 01:46:44;;;;;;;6.80;2.50;;;9.20;99.90;;;;;;5051750;28;20493;-76
2021/05/14 01:49:10;;;;;;;4.28;2.70;;;9.20;99.90;;;;;;5050247;28;20078;-76
2021/05/14 01:51:36;;;;;;;4.78;2.55;;;9.20;99.90;;;;;;5051634;28;20021;-76
2021/05/14 01:54:01;;;;;;;7.65;2.47;;;9.20;99.90;;;;;;5051861;28;20461;-75
2021/05/14 01:56:27;;;;;;;4.05;2.70;;;9.20;99.90;;;;;;5050107;28;20493;-76
2021/05/14 01:58:53;;;;;;;6.55;2.40;;;9.20;99.90;;;;;;5051341;28;20029;-76
2021/05/14 02:01:19;;;;;;;3.35;2.40;;;9.20;99.90;;;;;;5051475;28;20100;-75
2021/05/14 02:03:45;;;;;;;7.45;2.53;;;9.20;99.90;;;;;;5051439;28;20083;-75
2021/05/14 02:06:11;;;;;;;3.45;2.20;;;9.20;99.90;;;;;;5051155;28;20108;-75
2021/05/14 02:08:37;;;;;;;3.08;2.25;;;9.10;99.90;;;;;;5049980;28;20032;-75
2021/05/14 02:11:03;;;;;;;4.35;2.63;;;9.10;99.90;;;;;;5051297;28;20071;-75
2021/05/14 02:13:30;;;;;;;4.70;2.25;;;9.10;99.90;;;;;;5050020;28;20029;-75
2021/05/14 02:15:55;;;;;;;3.50;2.58;;;9.10;99.90;;;;;;5051175;28;20025;-75
2021/05/14 02:18:21;;;;;;;4.13;2.22;;;9.10;99.90;;;;;;5049882;28;20028;-75
2021/05/14 02:20:47;;;;;;;4.65;2.10;;;9.10;99.90;;;;;;5051107;28;20427;-75
2021/05/14 02:23:13;;;;;;;2.95;2.30;;;9.00;99.90;;;;;;5051046;28;20474;-75
2021/05/14 02:25:38;;;;;;;3.95;2.42;;;9.10;99.90;;;;;;5049874;28;20025;-75
2021/05/14 02:28:06;;;;;;;4.20;2.28;;;9.00;99.90;;;;;;5049711;28;20493;-75
2021/05/14 02:30:32;;;;;;;3.15;2.30;;;9.00;99.90;;;;;;5050885;28;20075;-75
2021/05/14 02:32:57;;;;;;;4.10;2.22;;;9.00;99.90;;;;;;5050907;28;20025;-75
2021/05/14 02:35:23;;;;;;;4.43;2.30;;;9.00;99.90;;;;;;5049622;28;20041;-75
2021/05/14 02:37:49;;;;;;;3.28;2.70;;;9.00;99.90;;;;;;5050929;28;20025;-75
2021/05/14 02:40:15;;;;;;;4.78;2.75;;;9.00;99.90;;;;;;5051570;28;20028;-76
2021/05/14 02:42:41;;;;;;;3.90;2.20;;;8.90;99.90;;;;;;5049437;28;20029;-76
2021/05/14 02:45:07;;;;;;;3.10;2.22;;;8.90;99.90;;;;;;5050650;28;20032;-76
2021/05/14 02:47:32;;;;;;;4.57;2.35;;;8.80;99.90;;;;;;5050642;28;20052;-76
2021/05/14 02:49:58;;;;;;;4.45;2.60;;;8.90;99.90;;;;;;5049283;28;20034;-76
2021/05/14 02:52:24;;;;;;;4.18;2.65;;;8.80;99.90;;;;;;5050540;28;20106;-75
2021/05/14 02:54:49;;;;;;;3.72;2.30;;;8.70;99.90;;;;;;5050420;28;20474;-75
2021/05/14 02:57:16;;;;;;;3.42;2.83;;;8.70;99.90;;;;;;5050198;28;20489;-76
2021/05/14 02:59:41;;;;;;;3.33;2.38;;;8.70;99.90;;;;;;5050488;28;20029;-75
2021/05/14 03:02:07;;;;;;;3.15;2.25;;;8.60;99.90;;;;;;5050532;28;20033;-75
2021/05/14 03:04:33;;;;;;;5.47;2.85;;;8.60;99.90;;;;;;5049029;28;20025;-75
2021/05/14 03:07:00;;;;;;;3.20;2.25;;;8.50;99.90;;;;;;5050178;28;20032;-75
2021/05/14 03:09:26;;;;;;;5.30;2.67;;;8.50;99.90;;;;;;5048743;28;20087;-76
2021/05/14 03:11:51;;;;;;;3.47;2.83;;;8.50;99.90;;;;;;5048927;28;20025;-76
2021/05/14 03:14:17;;;;;;;4.38;3.03;;;8.50;99.90;;;;;;5050092;28;20090;-76
2021/05/14 03:16:43;;;;;;;5.10;2.70;;;8.50;99.90;;;;;;5048480;28;20017;-76
2021/05/14 03:19:08;;;;;;;5.68;2.80;;;8.60;99.90;;;;;;5048320;28;20025;-76
2021/05/14 03:21:34;;;;;;;4.30;2.50;;;8.60;99.90;;;;;;5050035;28;20025;-76
2021/05/14 03:23:59;;;;;;;3.80;2.70;;;8.60;99.90;;;;;;5050157;28;20021;-76
2021/05/14 03:26:26;;;;;;;5.38;2.25;;;8.60;99.90;;;;;;5049808;28;20033;-75
2021/05/14 03:28:52;;;;;;;4.57;2.90;;;8.50;99.90;;;;;;5049762;28;20033;-75
2021/05/14 03:31:18;;;;;;;6.43;2.65;;;8.60;99.90;;;;;;5049756;28;20104;-75
2021/05/14 03:33:43;;;;;;;5.72;2.88;;;8.60;99.90;;;;;;5048722;28;20509;-75
2021/05/14 03:36:09;;;;;;;3.00;2.38;;;8.60;99.90;;;;;;5048387;28;20047;-75
2021/05/14 03:38:35;;;;;;;2.88;2.22;;;8.60;99.90;;;;;;5049569;28;20079;-75
2021/05/14 03:41:18;;;;;;;3.05;2.17;;;8.60;99.90;;;;;;5049649;28;20024;-75
2021/05/14 03:43:44;;;;;;;2.65;2.10;;;8.60;99.90;;;;;;5049781;28;20108;-75
2021/05/14 03:46:10;;;;;;;4.55;2.53;;;8.70;99.90;;;;;;5049860;28;20100;-75
2021/05/14 03:48:35;;;;;;;3.72;2.35;;;8.70;99.90;;;;;;5048167;28;20057;-75
2021/05/14 03:51:01;;;;;;;4.85;2.40;;;8.60;99.90;;;;;;5049579;28;20060;-75
2021/05/14 03:53:26;;;;;;;3.33;2.20;;;8.60;99.90;;;;;;5049925;28;20048;-75
2021/05/14 03:55:52;;;;;;;3.72;1.95;;;8.60;99.90;;;;;;5048161;28;20017;-75
2021/05/14 03:58:18;;;;;;;2.67;1.98;;;8.60;99.90;;;;;;5066912;22;20037;-73
2021/05/14 04:00:44;;;;;;;3.72;2.35;;;8.60;99.90;;;;;;5029380;28;20037;-73
2021/05/14 04:03:12;;;;;;;4.30;1.92;;;8.70;99.90;;;;;;5028236;28;20083;-73
2021/05/14 04:05:40;;;;;;;2.10;1.75;;;8.70;99.90;;;;;;5029864;28;20407;-73
2021/05/14 04:08:06;;;;;;;3.97;1.70;;;8.70;99.90;;;;;;5028447;28;20026;-73
2021/05/14 04:15:42;;;;;;;3.15;2.13;;;8.70;99.90;;;;;;5029557;28;20517;-73
2021/05/14 04:18:07;;;;;;;2.80;1.63;;;8.80;99.90;;;;;;5029351;28;20026;-73
2021/05/14 04:20:33;;;;;;;5.93;1.65;;;8.80;99.90;;;;;;5027990;28;20032;-73
2021/05/14 04:22:58;;;;;;;3.72;1.80;;;8.80;99.90;;;;;;5029308;28;20029;-73
2021/05/14 04:25:24;;;;;;;5.03;1.80;;;8.80;99.90;;;;;;5029715;28;20525;-73
2021/05/14 04:27:50;;;;;;;4.82;1.70;;;8.80;99.90;;;;;;5028276;28;20513;-74
2021/05/14 04:30:16;;;;;;;2.92;1.75;;;8.80;99.90;;;;;;5033077;28;20025;-73
2021/05/14 04:32:41;;;;;;;3.47;1.40;;;8.80;99.90;;;;;;5033735;28;20018;-73
2021/05/14 04:35:08;;;;;;;3.05;1.50;;;8.80;99.90;;;;;;5032177;28;20028;-73
2021/05/14 04:37:33;;;;;;;3.42;1.60;;;8.80;99.90;;;;;;5033367;28;20032;-73
2021/05/14 04:39:59;;;;;;;1.88;1.65;;;8.70;99.90;;;;;;5033401;28;20025;-73
2021/05/14 04:42:24;;;;;;;3.05;1.63;;;8.70;99.90;;;;;;5033306;28;20034;-73
2021/05/14 04:44:50;;;;;;;2.58;1.58;;;8.60;99.90;;;;;;5033169;28;20048;-74
2021/05/14 04:47:16;;;;;;;2.70;1.65;;;8.50;99.90;;;;;;5032934;28;20072;-73
2021/05/14 04:49:41;;;;;;;2.72;1.90;;;8.50;99.90;;;;;;5031804;28;20025;-73
2021/05/14 04:52:21;;;;;;;3.90;1.80;;;8.50;99.90;;;;;;5032899;28;20018;-73
2021/05/14 04:54:47;;;;;;;3.90;1.55;;;8.50;99.90;;;;;;5031677;28;20052;-73
2021/05/14 04:57:13;;;;;;;2.90;1.90;;;8.40;99.90;;;;;;5032828;28;20061;-73
2021/05/14 04:59:40;;;;;;;4.88;1.83;;;8.50;99.90;;;;;;5032663;28;20469;-73
2021/05/14 05:02:07;;;;;;;2.97;1.70;;;8.50;99.90;;;;;;5033283;28;20026;-73
2021/05/14 05:04:35;;;;;;;4.10;1.92;;;8.50;99.90;;;;;;5032920;28;20129;-72
2021/05/14 05:07:00;;;;;;;3.05;1.80;;;8.50;99.90;;;;;;5032750;28;20030;-73
2021/05/14 05:09:26;;;;;;;3.00;1.88;;;8.50;99.90;;;;;;5031300;28;20022;-73
2021/05/14 05:11:51;;;;;;;4.10;1.90;;;8.60;99.90;;;;;;5033026;28;20036;-73
2021/05/14 05:14:17;;;;;;;3.25;2.08;;;8.70;99.90;;;;;;5031248;28;20025;-73
2021/05/14 05:16:43;;;;;;;2.45;2.00;;;8.70;99.90;;;;;;5032480;28;20017;-73
2021/05/14 05:19:08;;;;;;;5.68;2.42;;;8.80;99.90;;;;;;5032321;28;20430;-73
2021/05/14 05:21:34;;;;;;;3.78;1.50;;;8.90;99.90;;;;;;5032347;28;20497;-73
2021/05/14 05:23:59;;;;;;;3.13;1.73;;;8.90;99.90;;;;;;5032582;28;20116;-73
2021/05/14 05:26:27;;;;;;;2.63;1.77;;;9.00;99.90;;;;;;5032532;28;20025;-73
2021/05/14 05:28:52;;;;;;;2.53;2.03;;;9.10;99.90;;;;;;5032078;28;20485;-73
2021/05/14 05:31:18;;;;;;;3.75;1.50;;;9.20;99.90;;;;;;5032177;28;20078;-73
2021/05/14 05:33:43;;;;;;;8.52;2.20;;;9.30;99.90;;;;;;5032120;28;20513;-73
2021/05/14 05:36:09;;;;;;;5.35;1.60;;;9.40;99.90;;;;;;5030808;28;20399;-73
2021/05/14 05:38:34;;;;;;;3.95;1.60;;;9.50;99.90;;;;;;5031108;28;20163;-73
2021/05/14 05:41:00;;;;;;;2.30;1.25;;;9.60;99.90;;;;;;5031327;28;20223;-73
2021/05/14 05:43:26;;;;;;;4.50;1.83;;;9.70;99.90;;;;;;5032003;28;20040;-73
2021/05/14 05:45:51;;;;;;;2.15;1.50;;;9.80;99.90;;;;;;5031895;28;20032;-73
2021/05/14 05:48:17;;;;;;;3.20;1.60;;;9.90;99.90;;;;;;5032014;28;20028;-73
2021/05/14 05:50:43;;;;;;;1.90;1.60;;;10.00;99.90;;;;;;5032173;28;20050;-74
2021/05/14 05:53:09;;;;;;;4.82;1.58;;;10.10;99.90;;;;;;5031066;28;20025;-72
2021/05/14 05:55:35;;;;;;;3.05;1.48;;;10.20;99.90;;;;;;5030882;28;20120;-74
2021/05/14 05:58:06;;;;;;;3.95;1.73;;;10.30;99.90;;;;;;5031552;28;20076;-74
2021/05/14 06:00:31;;;;;;;3.30;1.27;;;10.30;99.90;;;;;;5030602;28;20398;-74
2021/05/14 06:02:58;;;;;;;2.25;1.20;;;10.40;99.90;;;;;;5031697;28;20026;-74
2021/05/14 06:05:23;;;;;;;3.10;1.58;;;10.40;99.90;;;;;;5031513;28;20052;-74
2021/05/14 06:07:49;;;;;;;1.85;1.30;;;10.50;99.90;;;;;;5031666;28;20482;-71
2021/05/14 06:10:14;;;;;;;1.67;1.20;;;10.60;99.90;;;;;;5030259;28;20028;-71
2021/05/14 06:12:40;;;;;;;2.05;1.30;;;10.60;99.90;;;;;;5031529;28;20044;-72
2021/05/14 06:15:06;;;;;;;4.30;1.40;;;10.80;99.90;;;;;;5031447;28;20030;-74
2021/05/14 06:17:36;;;;;;;3.95;1.80;;;10.80;99.90;;;;;;5031390;28;20117;-74
2021/05/14 06:20:03;;;;;;;3.60;1.42;;;11.00;99.90;;;;;;5032424;28;20379;-72
2021/05/14 06:22:29;;;;;;;2.67;1.23;;;11.00;99.90;;;;;;5031396;28;20037;-71
2021/05/14 06:24:54;;;;;;;1.50;1.10;;;11.10;99.90;;;;;;5031286;28;20395;-71
2021/05/14 06:27:20;;;;;;;2.00;1.20;;;11.10;99.90;;;;;;5029960;28;20025;-73
2021/05/14 06:29:46;;;;;;;4.47;1.52;;;11.30;99.90;;;;;;5031134;28;20040;-72
2021/05/14 06:32:12;;;;;;;3.47;1.50;;;11.40;99.90;;;;;;5031610;28;20486;-72
2021/05/14 06:34:37;;;;;;;3.60;1.38;;;11.50;99.90;;;;;;5029854;28;20030;-72
2021/05/14 06:37:03;;;;;;;2.03;1.25;;;11.60;99.90;;;;;;5031164;28;20388;-71
2021/05/14 06:39:29;;;;;;;2.25;1.23;;;11.80;99.90;;;;;;5031133;28;20033;-72
2021/05/14 06:41:54;;;;;;;2.17;1.33;;;11.90;99.90;;;;;;5030766;28;20487;-71
2021/05/14 06:44:20;;;;;;;2.28;1.27;;;11.90;99.90;;;;;;5030945;28;20025;-71
2021/05/14 06:46:45;;;;;;;2.38;1.35;;;12.00;99.90;;;;;;5031361;28;20083;-72
2021/05/14 06:49:11;;;;;;;2.22;1.20;;;12.10;99.90;;;;;;5030862;28;20034;-73
2021/05/14 06:51:37;;;;;;;1.52;1.02;;;12.20;99.90;;;;;;5030521;28;20022;-71
2021/05/14 06:54:04;;;;;;;3.20;1.40;;;12.30;99.90;;;;;;5030274;28;20122;-73
2021/05/14 06:56:29;;;;;;;1.80;1.00;;;12.40;99.90;;;;;;5030517;28;20119;-72
2021/05/14 06:58:55;;;;;;;3.65;1.42;;;12.50;99.90;;;;;;5029096;28;20058;-72
2021/05/14 07:01:23;;;;;;;2.78;1.00;;;12.70;99.90;;;;;;5030624;28;20079;-72
2021/05/14 07:03:50;;;;;;;3.92;0.95;;;12.80;99.90;;;;;;5030470;28;20018;-72
2021/05/14 07:06:16;;;;;;;4.30;1.30;;;12.90;99.90;;;;;;5030446;28;20026;-73
2021/05/14 07:08:47;;;;;;;2.30;1.20;;;13.00;99.90;;;;;;5030573;28;20089;-72
2021/05/14 07:11:12;;;;;;;3.13;1.30;;;13.10;99.90;;;;;;5030743;28;20037;-72
2021/05/14 07:13:38;;;;;;;2.95;1.20;;;13.20;99.90;;;;;;5029076;28;20391;-72
2021/05/14 07:16:04;;;;;;;3.13;1.30;;;13.30;99.90;;;;;;5028918;28;20098;-72
2021/05/14 07:18:31;;;;;;;3.45;1.55;;;13.40;99.90;;;;;;5030441;28;20030;-73
2021/05/14 07:20:57;;;;;;;2.35;1.30;;;13.50;99.90;;;;;;5028910;28;20513;-73
2021/05/14 07:23:22;;;;;;;2.00;1.13;;;13.70;99.90;;;;;;5030223;28;20029;-72
2021/05/14 07:25:48;;;;;;;2.63;1.20;;;13.90;99.90;;;;;;5028888;28;20494;-72
2021/05/14 07:28:14;;;;;;;1.35;1.00;;;14.20;99.90;;;;;;5028750;28;20022;-72
2021/05/14 07:30:39;;;;;;;1.50;1.00;;;14.40;99.90;;;;;;5028756;28;20026;-73
2021/05/14 07:33:05;;;;;;;1.65;1.10;;;14.60;99.90;;;;;;5029073;28;20020;-73
2021/05/14 07:35:30;;;;;;;2.50;1.20;;;14.80;99.90;;;;;;5028988;28;20028;-72
2021/05/14 07:37:56;;;;;;;3.35;1.02;;;14.90;99.90;;;;;;5029919;28;20021;-72
2021/05/14 07:40:22;;;;;;;3.35;1.25;;;15.10;99.90;;;;;;5028839;28;20021;-72
2021/05/14 07:42:47;;;;;;;2.10;1.25;;;15.30;99.90;;;;;;5029964;28;20534;-73
2021/05/14 07:45:13;;;;;;;2.55;1.20;;;15.30;99.90;;;;;;5029984;28;20032;-74
2021/05/14 07:47:39;;;;;;;3.30;0.90;;;15.50;99.90;;;;;;5030089;28;20120;-73
2021/05/14 07:50:05;;;;;;;1.25;0.90;;;15.60;99.90;;;;;;5028441;28;20032;-73
2021/05/14 07:52:31;;;;;;;2.05;0.90;;;15.90;99.90;;;;;;5029961;28;20026;-73
2021/05/14 07:54:56;;;;;;;1.05;0.95;;;16.00;99.90;;;;;;5029639;28;20022;-73
2021/05/14 07:57:22;;;;;;;1.05;0.80;;;15.90;99.90;;;;;;5029857;28;20025;-73
2021/05/14 07:59:48;;;;;;;1.35;0.73;;;16.10;99.90;;;;;;5029507;28;20179;-73
2021/05/14 08:02:14;;;;;;;0.90;0.77;;;16.20;99.90;;;;;;5028340;28;20025;-73
2021/05/14 08:04:39;;;;;;;1.60;0.90;;;16.40;99.90;;;;;;5029604;28;20029;-73
2021/05/14 08:07:05;;;;;;;1.17;0.90;;;16.70;99.40;;;;;;5029504;28;20096;-73
2021/05/14 08:09:30;;;;;;;2.28;0.85;;;16.90;97.70;;;;;;5028392;28;20398;-73
2021/05/14 08:11:57;;;;;;;4.47;0.90;;;17.00;92.30;;;;;;5028241;28;20032;-73
2021/05/14 08:14:22;;;;;;;2.75;1.38;;;17.00;93.80;;;;;;5029464;28;20037;-73
2021/05/14 08:16:48;;;;;;;0.98;0.70;;;16.80;90.50;;;;;;5029375;28;20026;-73
2021/05/14 08:19:14;;;;;;;1.27;0.77;;;16.80;92.90;;;;;;5029325;28;20021;-73
2021/05/14 08:21:41;;;;;;;2.05;1.00;;;16.70;91.90;;;;;;5029586;28;20021;-74
2021/05/14 08:24:07;;;;;;;1.25;0.80;;;16.60;92.00;;;;;;5030140;28;20030;-73
2021/05/14 08:26:33;;;;;;;1.42;0.77;;;16.80;94.60;;;;;;5029431;28;20053;-73
2021/05/14 08:28:59;;;;;;;4.80;1.20;;;17.20;95.10;;;;;;5029130;28;20521;-73
2021/05/14 08:31:24;;;;;;;0.60;0.57;;;17.70;89.90;;;;;;5027976;28;20493;-74
2021/05/14 08:33:50;;;;;;;1.50;0.80;;;17.80;84.30;;;;;;5029280;28;20021;-73
2021/05/14 08:36:15;;;;;;;0.95;0.80;;;17.80;83.20;;;;;;5029044;28;20066;-72
2021/05/14 08:38:41;;;;;;;1.00;0.70;;;17.60;81.30;;;;;;5029056;28;20445;-72
2021/05/14 08:41:08;;;;;;;0.70;0.70;;;17.40;83.60;;;;;;5029925;28;20037;-73
2021/05/14 08:43:34;;;;;;;1.05;0.50;;;17.60;82.90;;;;;;5029085;28;20151;-73
2021/05/14 08:46:03;;;;;;;2.20;0.70;;;17.80;83.10;;;;;;5027836;28;20037;-73
2021/05/14 08:48:36;;;;;;;1.83;0.80;;;17.80;78.30;;;;;;5027798;28;20025;-73
2021/05/14 08:51:09;;;;;;;0.52;0.50;;;17.80;75.30;;;;;;5029076;28;20159;-73
2021/05/14 08:53:36;;;;;;;4.78;0.95;;;17.80;75.80;;;;;;5029186;28;20097;-73
2021/05/14 08:56:01;;;;;;;1.15;0.80;;;18.00;76.50;;;;;;5028494;28;20025;-73
2021/05/14 08:58:27;;;;;;;1.20;0.77;;;18.10;80.40;;;;;;5027639;28;20043;-73
2021/05/14 09:00:53;;;;;;;0.70;0.68;;;18.00;79.30;;;;;;5029000;28;20111;-73
2021/05/14 09:03:20;;;;;;;1.60;0.60;;;17.90;78.10;;;;;;5029128;28;20034;-73
2021/05/14 09:05:47;;;;;;;1.67;0.70;;;18.00;75.60;;;;;;5027780;28;20448;-72
2021/05/14 09:08:24;;;;;;;0.57;0.57;;;18.30;72.70;;;;;;5027601;28;20545;-74
2021/05/14 09:10:49;;;;;;;0.70;0.47;;;18.40;71.70;;;;;;5028935;28;20032;-73
2021/05/14 09:13:16;;;;;;;1.48;0.55;;;18.70;72.70;;;;;;5027716;28;20414;-73
2021/05/14 09:15:42;;;;;;;1.63;0.52;;;18.90;71.20;;;;;;5030069;28;20028;-74
2021/05/14 09:18:19;;;;;;;1.70;0.60;;;19.10;69.30;;;;;;5032500;28;20026;-73
2021/05/14 09:20:47;;;;;;;1.73;0.60;;;19.30;66.10;;;;;;5032439;28;20025;-73
2021/05/14 09:23:15;;;;;;;0.88;0.65;;;19.10;65.40;;;;;;5032340;28;20434;-73
2021/05/14 09:26:05;;;;;;;1.75;0.70;;;18.90;68.20;;;;;;5032247;28;20026;-73
2021/05/14 09:28:32;;;;;;;1.20;0.63;;;18.70;68.90;;;;;;5032631;28;20084;-75
2021/05/14 09:31:05;;;;;;;0.88;0.50;;;19.10;68.90;;;;;;5030853;28;20120;-74
2021/05/14 09:33:31;;;;;;;0.60;0.60;;;19.70;66.70;;;;;;5032503;28;20356;-73
2021/05/14 09:36:00;;;;;;;1.10;0.50;;;20.30;62.00;;;;;;5032449;28;20071;-75
2021/05/14 09:38:27;;;;;;;1.63;0.85;;;21.10;60.60;;;;;;5030915;28;20518;-72
2021/05/14 09:40:54;;;;;;;0.85;0.60;;;21.30;55.80;;;;;;5032117;28;20124;-72
2021/05/14 09:43:23;;;;;;;1.80;0.55;;;21.50;56.40;;;;;;5030863;28;20032;-73
2021/05/14 09:45:49;;;;;;;2.67;0.80;;;21.30;54.20;;;;;;5032077;28;20029;-72
2021/05/14 09:48:15;;;;;;;0.50;0.50;;;22.10;55.10;;;;;;5031954;28;20029;-73
2021/05/14 09:50:42;;;;;;;0.50;0.50;;;23.80;49.60;;;;;;5031836;28;20025;-72
2021/05/14 09:53:09;;;;;;;1.00;0.40;;;26.10;45.70;;;;;;5030618;28;20557;-73
2021/05/14 09:55:37;;;;;;;2.55;0.63;;;26.10;44.00;;;;;;5030432;28;20056;-73
2021/05/14 09:58:24;;;;;;;0.60;0.50;;;25.80;43.10;;;;;;5059406;22;20031;-72
2021/05/14 10:00:50;;;;;;;1.08;0.65;;;25.20;45.30;;;;;;5029507;28;20036;-76
2021/05/14 10:03:22;;;;;;;1.42;0.70;;;27.00;41.80;;;;;;5030366;28;20402;-76
2021/05/14 10:05:50;;;;;;;1.30;0.50;;;29.80;36.30;;;;;;5030500;28;20505;-76
2021/05/14 10:08:19;;;;;;;1.55;0.50;;;31.30;32.90;;;;;;5031730;28;20036;-76
2021/05/14 10:10:45;;;;;;;0.57;0.45;;;33.50;30.90;;;;;;5031797;28;20032;-74
2021/05/14 10:13:11;;;;;;;0.32;0.30;;;36.00;28.20;;;;;;5030708;28;20379;-74
2021/05/14 10:15:38;;;;;;;3.90;0.50;;;37.90;26.00;;;;;;5031808;28;20048;-74
2021/05/14 10:18:07;;;;;;;0.93;0.43;;;36.50;25.10;;;;;;5031265;28;20017;-75
2021/05/14 10:20:36;;;;;;;1.05;0.57;;;34.70;27.70;;;;;;5031301;28;20375;-74
2021/05/14 10:23:02;;;;;;;0.93;0.50;;;35.90;27.70;;;;;;5031284;28;20025;-74
2021/05/14 10:25:43;;;;;;;1.60;0.50;;;36.80;25.30;;;;;;5031140;28;20032;-74
2021/05/14 10:28:21;;;;;;;2.35;0.60;;;37.20;25.20;;;;;;5029588;28;20072;-74
2021/05/14 10:31:04;;;;;;;0.75;0.57;;;36.80;24.30;;;;;;5029715;28;20079;-74
2021/05/14 10:33:39;;;;;;;1.00;0.50;;;37.40;25.30;;;;;;5031375;28;20100;-75
2021/05/14 10:36:20;;;;;;;1.08;0.50;;;39.30;25.00;;;;;;5031059;28;20076;-75
2021/05/14 10:39:02;;;;;;;0.68;0.43;;;39.40;22.60;;;;;;5029426;28;20029;-75
2021/05/14 10:41:28;;;;;;;1.00;0.43;;;37.60;24.10;;;;;;5030799;28;20147;-74
2021/05/14 10:44:00;;;;;;;0.40;0.40;;;36.80;25.50;;;;;;5030705;28;20533;-73
2021/05/14 10:46:28;;;;;;;0.50;0.50;;;36.00;24.30;;;;;;5030659;28;20026;-74
2021/05/14 10:49:02;;;;;;;0.40;0.35;;;36.30;25.00;;;;;;5030656;28;20025;-73
2021/05/14 10:51:49;;;;;;;0.57;0.50;;;37.50;25.10;;;;;;5030743;28;20029;-74
2021/05/14 10:54:39;;;;;;;2.20;0.50;;;39.80;23.00;;;;;;5030886;28;20024;-75
2021/05/14 10:57:13;;;;;;;0.32;0.32;;;41.10;21.50;;;;;;5030612;28;20416;-75
2021/05/14 10:59:43;;;;;;;0.80;0.50;;;37.70;23.20;;;;;;5029167;28;20040;-75
2021/05/14 11:02:28;;;;;;;0.60;0.50;;;35.30;25.40;;;;;;5030579;28;20031;-74
2021/05/14 11:04:55;;;;;;;0.52;0.52;;;32.20;28.00;;;;;;5029096;28;20032;-75
2021/05/14 11:07:35;;;;;;;0.98;0.40;;;29.90;30.30;;;;;;5029203;28;20120;-75
2021/05/14 11:10:13;;;;;;;1.48;0.52;;;27.60;33.90;;;;;;5029199;28;20070;-74
2021/05/14 11:12:39;;;;;;;1.50;0.45;;;25.80;36.40;;;;;;5030199;28;20056;-73
2021/05/14 11:15:28;;;;;;;0.95;0.60;;;24.60;39.10;;;;;;5028886;28;20056;-74
2021/05/14 11:18:05;;;;;;;2.22;0.63;;;23.80;41.30;;;;;;5030132;28;20049;-75
2021/05/14 11:20:48;;;;;;;0.55;0.55;;;23.30;41.90;;;;;;5030051;28;20036;-74
2021/05/14 11:23:41;;;;;;;0.70;0.60;;;23.50;43.00;;;;;;5029022;28;20026;-75
2021/05/14 11:26:16;;;;;;;2.40;0.63;;;25.20;40.40;;;;;;5028834;28;20021;-75
2021/05/14 11:28:51;;;;;;;0.77;0.50;;;26.70;36.20;;;;;;5029852;28;20471;-75
2021/05/14 11:31:22;;;;;;;0.55;0.40;;;28.30;34.10;;;;;;5030336;28;20495;-75
2021/05/14 11:33:50;;;;;;;0.57;0.38;;;28.80;31.70;;;;;;5028708;28;20121;-75
2021/05/14 11:36:16;;;;;;;0.88;0.40;;;28.10;32.20;;;;;;5029928;28;20521;-75
2021/05/14 11:38:49;;;;;;;0.38;0.38;;;26.70;35.50;;;;;;5029275;28;20100;-75
2021/05/14 11:41:36;;;;;;;0.65;0.45;;;25.40;38.40;;;;;;5030064;28;20029;-75
2021/05/14 11:44:04;;;;;;;1.75;0.60;;;24.50;40.20;;;;;;5029655;28;20030;-74
2021/05/14 11:46:33;;;;;;;0.90;0.30;;;23.60;42.10;;;;;;5028478;28;20022;-74
2021/05/14 11:49:06;;;;;;;0.50;0.35;;;23.00;43.40;;;;;;5028418;28;20482;-74
2021/05/14 11:51:34;;;;;;;0.90;0.60;;;22.20;42.90;;;;;;5030042;28;20381;-74
2021/05/14 11:54:14;;;;;;;1.13;0.55;;;21.50;44.50;;;;;;5028369;28;20025;-74
2021/05/14 11:56:41;;;;;;;0.70;0.50;;;21.60;44.60;;;;;;5028366;28;20026;-75
2021/05/14 11:59:20;;;;;;;1.05;0.40;;;24.60;39.80;;;;;;5029251;28;20083;-75
2021/05/14 12:01:45;;;;;;;1.27;0.43;;;28.50;34.40;;;;;;5028289;28;20029;-75
2021/05/14 12:04:12;;;;;;;1.10;0.50;;;31.30;29.70;;;;;;5028196;28;20032;-76
2021/05/14 12:06:51;;;;;;;2.83;1.13;;;32.30;28.60;;;;;;5029490;28;20014;-76
2021/05/14 12:09:17;;;;;;;1.50;0.50;;;29.80;30.40;;;;;;5028105;28;20058;-75
2021/05/14 12:11:47;;;;;;;0.80;0.55;;;29.00;32.30;;;;;;5028263;28;20021;-75
2021/05/14 12:14:23;;;;;;;0.40;0.40;;;31.10;30.10;;;;;;5028087;28;20026;-75
2021/05/14 12:16:49;;;;;;;1.00;0.60;;;33.40;28.40;;;;;;5029341;28;20026;-74
2021/05/14 12:19:14;;;;;;;0.55;0.40;;;33.50;27.60;;;;;;5027887;28;20029;-75
2021/05/14 12:21:40;;;;;;;0.70;0.30;;;31.10;28.60;;;;;;5027993;28;20506;-75
2021/05/14 12:24:18;;;;;;;0.50;0.30;;;29.30;31.40;;;;;;5028025;28;20395;-75
2021/05/14 12:26:45;;;;;;;1.30;0.40;;;28.00;34.60;;;;;;5028031;28;20021;-75
2021/05/14 12:29:26;;;;;;;0.70;0.50;;;28.60;35.60;;;;;;5029191;28;20033;-75
2021/05/14 12:31:56;;;;;;;0.52;0.40;;;30.10;32.80;;;;;;5029335;28;20371;-75
2021/05/14 12:34:22;;;;;;;0.70;0.35;;;30.00;31.70;;;;;;5029475;28;20101;-75
2021/05/14 12:36:53;;;;;;;1.27;0.68;;;29.20;32.90;;;;;;5028002;28;20418;-75
2021/05/14 12:39:19;;;;;;;1.00;0.50;;;28.40;34.30;;;;;;5027718;28;20027;-74
2021/05/14 12:42:02;;;;;;;1.85;0.52;;;28.20;35.70;;;;;;5029104;28;20036;-74
2021/05/14 12:44:34;;;;;;;0.47;0.47;;;28.00;35.60;;;;;;5029367;28;20542;-74
2021/05/14 12:47:10;;;;;;;0.50;0.40;;;27.70;34.90;;;;;;5028014;28;20022;-74
2021/05/14 12:49:47;;;;;;;0.68;0.50;;;26.80;36.30;;;;;;5029017;28;20029;-74
2021/05/14 12:52:35;;;;;;;0.70;0.45;;;26.40;37.60;;;;;;5032399;28;20025;-74
2021/05/14 12:55:06;;;;;;;0.50;0.50;;;26.30;38.00;;;;;;5031737;28;20497;-74
2021/05/14 12:57:40;;;;;;;0.70;0.70;;;26.90;37.30;;;;;;5031571;28;20124;-74
2021/05/14 13:00:16;;;;;;;2.88;1.25;;;28.10;36.10;;;;;;5032504;28;20071;-75